sensor_id;sensor_type;location;lat;lon;timestamp;pressure;altitude;pressure_sealevel;temperature;humidity
64294;BME280;50636;45.596;5.258;2022-08-04T00:01:40;98410.56;;;28.94;29.11
64294;BME280;50636;45.596;5.258;2022-08-04T00:06:51;98414.56;;;28.87;28.23
64294;BME280;50636;45.596;5.258;2022-08-04T00:09:38;98397.25;;;28.88;27.36
64294;BME280;50636;45.596;5.258;2022-08-04T00:12:06;98399.63;;;28.90;26.85
64294;BME280;50636;45.596;5.258;2022-08-04T00:14:37;98397.41;;;28.83;26.53
64294;BME280;50636;45.596;5.258;2022-08-04T00:17:06;98414.16;;;28.77;26.48
64294;BME280;50636;45.596;5.258;2022-08-04T00:19:43;98413.63;;;28.83;25.95
64294;BME280;50636;45.596;5.258;2022-08-04T00:22:10;98397.31;;;28.80;25.90
64294;BME280;50636;45.596;5.258;2022-08-04T00:24:38;98406.84;;;28.77;26.04
64294;BME280;50636;45.596;5.258;2022-08-04T00:27:06;98400.50;;;28.73;26.09
64294;BME280;50636;45.596;5.258;2022-08-04T00:29:33;98406.72;;;28.74;25.95
64294;BME280;50636;45.596;5.258;2022-08-04T00:32:01;98404.47;;;28.76;26.43
64294;BME280;50636;45.596;5.258;2022-08-04T00:34:29;98396.25;;;28.72;26.44
64294;BME280;50636;45.596;5.258;2022-08-04T00:36:56;98418.16;;;28.71;26.51
64294;BME280;50636;45.596;5.258;2022-08-04T00:39:23;98404.97;;;28.69;26.74
64294;BME280;50636;45.596;5.258;2022-08-04T00:50:39;98421.63;;;28.80;27.34
64294;BME280;50636;45.596;5.258;2022-08-04T00:53:33;98417.47;;;28.82;27.39
64294;BME280;50636;45.596;5.258;2022-08-04T00:56:07;98436.31;;;28.91;27.48
64294;BME280;50636;45.596;5.258;2022-08-04T00:58:58;98426.50;;;28.86;27.58
64294;BME280;50636;45.596;5.258;2022-08-04T01:09:57;98432.75;;;28.78;28.17
64294;BME280;50636;45.596;5.258;2022-08-04T01:15:44;98421.41;;;28.85;28.19
64294;BME280;50636;45.596;5.258;2022-08-04T01:18:21;98420.81;;;28.79;28.45
64294;BME280;50636;45.596;5.258;2022-08-04T01:21:05;98422.56;;;28.75;28.50
64294;BME280;50636;45.596;5.258;2022-08-04T01:23:59;98417.84;;;28.72;28.26
64294;BME280;50636;45.596;5.258;2022-08-04T01:29:10;98422.03;;;28.61;28.83
64294;BME280;50636;45.596;5.258;2022-08-04T01:35:01;98419.53;;;28.56;28.85
64294;BME280;50636;45.596;5.258;2022-08-04T01:40:16;98422.69;;;28.58;29.42
64294;BME280;50636;45.596;5.258;2022-08-04T01:42:43;98420.09;;;28.61;29.15
64294;BME280;50636;45.596;5.258;2022-08-04T01:45:11;98426.66;;;28.60;29.50
64294;BME280;50636;45.596;5.258;2022-08-04T01:47:42;98420.78;;;28.58;29.35
64294;BME280;50636;45.596;5.258;2022-08-04T01:50:11;98424.09;;;28.64;29.62
64294;BME280;50636;45.596;5.258;2022-08-04T01:52:39;98428.72;;;28.63;29.89
64294;BME280;50636;45.596;5.258;2022-08-04T01:55:08;98433.13;;;28.68;29.94
64294;BME280;50636;45.596;5.258;2022-08-04T02:00:08;98429.81;;;28.62;30.16
64294;BME280;50636;45.596;5.258;2022-08-04T02:02:34;98423.63;;;28.62;29.69
64294;BME280;50636;45.596;5.258;2022-08-04T02:05:00;98433.16;;;28.59;30.15
64294;BME280;50636;45.596;5.258;2022-08-04T02:13:29;98421.25;;;28.60;29.67
64294;BME280;50636;45.596;5.258;2022-08-04T02:16:09;98423.19;;;28.51;29.83
64294;BME280;50636;45.596;5.258;2022-08-04T02:19:04;98420.31;;;28.56;30.19
64294;BME280;50636;45.596;5.258;2022-08-04T02:21:33;98416.72;;;28.73;30.35
64294;BME280;50636;45.596;5.258;2022-08-04T02:24:07;98419.41;;;28.73;30.57
64294;BME280;50636;45.596;5.258;2022-08-04T02:26:37;98423.16;;;28.60;31.00
64294;BME280;50636;45.596;5.258;2022-08-04T02:29:28;98420.81;;;28.49;31.50
64294;BME280;50636;45.596;5.258;2022-08-04T02:32:02;98414.50;;;28.37;32.61
64294;BME280;50636;45.596;5.258;2022-08-04T02:37:04;98422.75;;;28.40;32.45
64294;BME280;50636;45.596;5.258;2022-08-04T02:39:34;98419.25;;;28.40;32.08
64294;BME280;50636;45.596;5.258;2022-08-04T02:42:03;98425.38;;;28.49;31.70
64294;BME280;50636;45.596;5.258;2022-08-04T02:44:30;98411.31;;;28.43;31.53
64294;BME280;50636;45.596;5.258;2022-08-04T02:47:00;98419.25;;;28.40;31.95
64294;BME280;50636;45.596;5.258;2022-08-04T02:49:28;98422.13;;;28.35;31.83
64294;BME280;50636;45.596;5.258;2022-08-04T02:51:56;98420.72;;;28.28;31.99
64294;BME280;50636;45.596;5.258;2022-08-04T02:54:24;98429.28;;;28.31;32.53
64294;BME280;50636;45.596;5.258;2022-08-04T02:56:56;98426.31;;;28.23;32.17
64294;BME280;50636;45.596;5.258;2022-08-04T02:59:29;98431.25;;;28.13;32.69
64294;BME280;50636;45.596;5.258;2022-08-04T03:02:02;98424.19;;;28.29;32.46
64294;BME280;50636;45.596;5.258;2022-08-04T03:04:46;98423.56;;;28.71;31.27
64294;BME280;50636;45.596;5.258;2022-08-04T03:07:35;98415.94;;;28.73;31.57
64294;BME280;50636;45.596;5.258;2022-08-04T03:15:57;98411.56;;;29.10;30.75
64294;BME280;50636;45.596;5.258;2022-08-04T03:30:38;98418.78;;;28.76;31.68
64294;BME280;50636;45.596;5.258;2022-08-04T03:33:08;98420.94;;;28.83;30.68
64294;BME280;50636;45.596;5.258;2022-08-04T03:41:47;98423.94;;;28.90;31.02
64294;BME280;50636;45.596;5.258;2022-08-04T03:50:07;98419.50;;;28.85;31.01
64294;BME280;50636;45.596;5.258;2022-08-04T03:56:59;98409.88;;;28.76;31.22
64294;BME280;50636;45.596;5.258;2022-08-04T03:59:22;98415.81;;;28.90;31.64
64294;BME280;50636;45.596;5.258;2022-08-04T04:08:04;98409.88;;;28.76;31.21
64294;BME280;50636;45.596;5.258;2022-08-04T04:13:27;98420.31;;;28.56;31.18
64294;BME280;50636;45.596;5.258;2022-08-04T04:16:17;98416.81;;;28.56;31.53
64294;BME280;50636;45.596;5.258;2022-08-04T04:24:36;98426.03;;;28.55;32.02
64294;BME280;50636;45.596;5.258;2022-08-04T04:27:25;98420.59;;;28.63;31.43
64294;BME280;50636;45.596;5.258;2022-08-04T04:36:16;98435.44;;;28.40;31.60
64294;BME280;50636;45.596;5.258;2022-08-04T04:39:12;98447.88;;;28.32;31.96
64294;BME280;50636;45.596;5.258;2022-08-04T04:42:15;98443.84;;;28.56;31.97
64294;BME280;50636;45.596;5.258;2022-08-04T04:51:21;98445.59;;;29.32;30.62
64294;BME280;50636;45.596;5.258;2022-08-04T04:54:43;98443.09;;;29.48;30.59
64294;BME280;50636;45.596;5.258;2022-08-04T04:57:12;98444.84;;;29.98;29.72
64294;BME280;50636;45.596;5.258;2022-08-04T04:59:52;98441.66;;;30.54;29.24
64294;BME280;50636;45.596;5.258;2022-08-04T05:03:07;98443.56;;;31.03;28.80
64294;BME280;50636;45.596;5.258;2022-08-04T05:05:54;98441.53;;;31.69;27.99
64294;BME280;50636;45.596;5.258;2022-08-04T05:08:42;98446.91;;;32.57;26.53
64294;BME280;50636;45.596;5.258;2022-08-04T05:14:50;98450.56;;;33.35;25.96
64294;BME280;50636;45.596;5.258;2022-08-04T05:17:42;98440.19;;;33.41;25.62
64294;BME280;50636;45.596;5.258;2022-08-04T05:20:19;98442.63;;;33.46;25.55
64294;BME280;50636;45.596;5.258;2022-08-04T05:22:55;98444.78;;;33.01;26.49
64294;BME280;50636;45.596;5.258;2022-08-04T05:25:33;98444.31;;;32.80;26.71
64294;BME280;50636;45.596;5.258;2022-08-04T05:30:29;98435.47;;;33.18;26.75
64294;BME280;50636;45.596;5.258;2022-08-04T05:33:08;98431.41;;;33.90;25.45
64294;BME280;50636;45.596;5.258;2022-08-04T05:35:41;98438.88;;;34.39;25.22
64294;BME280;50636;45.596;5.258;2022-08-04T05:38:11;98433.25;;;34.78;24.86
64294;BME280;50636;45.596;5.258;2022-08-04T05:40:39;98441.78;;;35.04;24.75
64294;BME280;50636;45.596;5.258;2022-08-04T05:43:06;98441.22;;;35.55;24.09
64294;BME280;50636;45.596;5.258;2022-08-04T05:45:34;98429.44;;;35.47;24.37
64294;BME280;50636;45.596;5.258;2022-08-04T05:48:05;98434.91;;;35.81;24.08
64294;BME280;50636;45.596;5.258;2022-08-04T05:50:32;98434.78;;;36.11;23.37
64294;BME280;50636;45.596;5.258;2022-08-04T05:52:59;98444.44;;;36.43;23.14
64294;BME280;50636;45.596;5.258;2022-08-04T05:55:27;98445.09;;;36.81;23.22
64294;BME280;50636;45.596;5.258;2022-08-04T05:57:55;98454.44;;;37.56;22.77
64294;BME280;50636;45.596;5.258;2022-08-04T06:00:23;98438.94;;;38.18;21.97
64294;BME280;50636;45.596;5.258;2022-08-04T06:02:51;98446.28;;;38.93;21.04
64294;BME280;50636;45.596;5.258;2022-08-04T06:05:17;98441.00;;;39.45;20.08
64294;BME280;50636;45.596;5.258;2022-08-04T06:07:44;98443.06;;;39.97;20.17
64294;BME280;50636;45.596;5.258;2022-08-04T06:10:11;98449.09;;;40.33;19.54
64294;BME280;50636;45.596;5.258;2022-08-04T06:12:45;98451.31;;;40.46;19.47
64294;BME280;50636;45.596;5.258;2022-08-04T06:15:16;98444.81;;;40.67;19.37
64294;BME280;50636;45.596;5.258;2022-08-04T06:17:52;98455.84;;;40.22;19.92
64294;BME280;50636;45.596;5.258;2022-08-04T06:20:21;98459.78;;;39.54;20.36
64294;BME280;50636;45.596;5.258;2022-08-04T06:22:58;98462.38;;;39.86;20.00
64294;BME280;50636;45.596;5.258;2022-08-04T06:25:29;98465.22;;;40.24;19.80
64294;BME280;50636;45.596;5.258;2022-08-04T06:27:57;98460.56;;;40.18;20.26
64294;BME280;50636;45.596;5.258;2022-08-04T06:30:26;98462.47;;;40.24;20.05
64294;BME280;50636;45.596;5.258;2022-08-04T06:32:54;98467.97;;;40.31;20.23
64294;BME280;50636;45.596;5.258;2022-08-04T06:35:22;98468.53;;;40.05;20.50
64294;BME280;50636;45.596;5.258;2022-08-04T06:37:51;98465.59;;;40.30;20.10
64294;BME280;50636;45.596;5.258;2022-08-04T06:40:19;98472.50;;;40.90;19.62
64294;BME280;50636;45.596;5.258;2022-08-04T06:42:47;98472.56;;;41.83;18.92
64294;BME280;50636;45.596;5.258;2022-08-04T06:45:13;98472.31;;;42.01;18.47
64294;BME280;50636;45.596;5.258;2022-08-04T06:47:41;98474.88;;;41.88;18.71
64294;BME280;50636;45.596;5.258;2022-08-04T06:50:09;98479.00;;;42.27;18.81
64294;BME280;50636;45.596;5.258;2022-08-04T06:52:36;98478.69;;;42.21;18.50
64294;BME280;50636;45.596;5.258;2022-08-04T06:55:03;98479.66;;;42.35;18.56
64294;BME280;50636;45.596;5.258;2022-08-04T06:57:30;98482.00;;;42.36;18.91
64294;BME280;50636;45.596;5.258;2022-08-04T07:00:00;98479.19;;;42.16;19.00
64294;BME280;50636;45.596;5.258;2022-08-04T07:02:29;98487.16;;;42.34;18.96
64294;BME280;50636;45.596;5.258;2022-08-04T07:04:55;98476.16;;;42.78;18.31
64294;BME280;50636;45.596;5.258;2022-08-04T07:07:25;98474.84;;;43.26;17.60
64294;BME280;50636;45.596;5.258;2022-08-04T07:09:51;98473.69;;;43.63;17.85
64294;BME280;50636;45.596;5.258;2022-08-04T07:12:17;98481.81;;;43.71;17.79
64294;BME280;50636;45.596;5.258;2022-08-04T07:14:48;98484.50;;;43.38;17.46
64294;BME280;50636;45.596;5.258;2022-08-04T07:17:16;98482.66;;;43.31;17.87
64294;BME280;50636;45.596;5.258;2022-08-04T07:19:43;98484.47;;;43.18;17.90
64294;BME280;50636;45.596;5.258;2022-08-04T07:22:09;98484.88;;;43.56;16.68
64294;BME280;50636;45.596;5.258;2022-08-04T07:24:37;98486.03;;;44.12;16.01
64294;BME280;50636;45.596;5.258;2022-08-04T07:27:04;98485.94;;;44.48;15.45
64294;BME280;50636;45.596;5.258;2022-08-04T07:29:32;98479.97;;;44.79;15.05
64294;BME280;50636;45.596;5.258;2022-08-04T07:31:59;98485.63;;;44.92;14.95
64294;BME280;50636;45.596;5.258;2022-08-04T07:34:26;98493.59;;;45.32;14.29
64294;BME280;50636;45.596;5.258;2022-08-04T07:36:54;98487.84;;;45.52;13.86
64294;BME280;50636;45.596;5.258;2022-08-04T07:39:23;98483.00;;;46.07;13.54
64294;BME280;50636;45.596;5.258;2022-08-04T07:41:50;98483.47;;;46.53;12.24
64294;BME280;50636;45.596;5.258;2022-08-04T07:44:16;98480.53;;;47.36;11.82
64294;BME280;50636;45.596;5.258;2022-08-04T07:46:44;98479.56;;;48.01;10.92
64294;BME280;50636;45.596;5.258;2022-08-04T07:49:10;98479.50;;;48.33;10.95
64294;BME280;50636;45.596;5.258;2022-08-04T07:51:37;98474.94;;;47.98;10.57
64294;BME280;50636;45.596;5.258;2022-08-04T07:54:05;98488.84;;;47.58;11.30
64294;BME280;50636;45.596;5.258;2022-08-04T07:56:32;98487.53;;;47.18;11.23
64294;BME280;50636;45.596;5.258;2022-08-04T07:59:00;98492.28;;;46.74;11.07
64294;BME280;50636;45.596;5.258;2022-08-04T08:01:29;98484.31;;;46.15;11.82
64294;BME280;50636;45.596;5.258;2022-08-04T08:03:56;98478.03;;;45.21;11.71
64294;BME280;50636;45.596;5.258;2022-08-04T08:06:23;98478.16;;;43.94;12.72
64294;BME280;50636;45.596;5.258;2022-08-04T08:08:49;98477.31;;;43.00;13.39
64294;BME280;50636;45.596;5.258;2022-08-04T08:11:15;98485.91;;;42.39;13.76
64294;BME280;50636;45.596;5.258;2022-08-04T08:13:42;98483.06;;;42.19;13.88
64294;BME280;50636;45.596;5.258;2022-08-04T08:16:10;98483.91;;;42.16;14.19
64294;BME280;50636;45.596;5.258;2022-08-04T08:18:35;98487.75;;;42.22;13.83
64294;BME280;50636;45.596;5.258;2022-08-04T08:21:01;98479.19;;;42.16;14.23
64294;BME280;50636;45.596;5.258;2022-08-04T08:23:30;98474.66;;;42.73;14.33
64294;BME280;50636;45.596;5.258;2022-08-04T08:25:58;98487.13;;;42.81;14.00
64294;BME280;50636;45.596;5.258;2022-08-04T08:28:24;98479.28;;;42.80;13.84
64294;BME280;50636;45.596;5.258;2022-08-04T08:30:50;98476.78;;;43.29;13.90
64294;BME280;50636;45.596;5.258;2022-08-04T08:33:16;98469.22;;;43.70;12.96
64294;BME280;50636;45.596;5.258;2022-08-04T09:07:18;98446.97;;;43.57;11.91
64294;BME280;50636;45.596;5.258;2022-08-04T09:15:23;98439.78;;;42.16;12.69
64294;BME280;50636;45.596;5.258;2022-08-04T09:18:06;98447.63;;;42.41;12.42
64294;BME280;50636;45.596;5.258;2022-08-04T09:20:42;98436.00;;;42.53;12.41
64294;BME280;50636;45.596;5.258;2022-08-04T09:23:22;98444.25;;;42.77;11.83
64294;BME280;50636;45.596;5.258;2022-08-04T09:26:08;98445.81;;;42.98;11.90
64294;BME280;50636;45.596;5.258;2022-08-04T09:29:50;98420.09;;;43.41;11.74
64294;BME280;50636;45.596;5.258;2022-08-04T09:31:56;98437.75;;;43.07;11.79
64294;BME280;50636;45.596;5.258;2022-08-04T09:37:37;98436.31;;;42.79;11.65
64294;BME280;50636;45.596;5.258;2022-08-04T09:40:14;98433.47;;;42.39;12.32
64294;BME280;50636;45.596;5.258;2022-08-04T09:42:57;98435.25;;;42.73;12.16
64294;BME280;50636;45.596;5.258;2022-08-04T09:45:35;98434.34;;;42.99;11.55
64294;BME280;50636;45.596;5.258;2022-08-04T09:48:10;98436.06;;;42.93;11.66
64294;BME280;50636;45.596;5.258;2022-08-04T09:50:41;98439.94;;;42.96;12.31
64294;BME280;50636;45.596;5.258;2022-08-04T09:58:49;98447.94;;;43.30;12.37
64294;BME280;50636;45.596;5.258;2022-08-04T10:01:22;98437.88;;;43.20;11.97
64294;BME280;50636;45.596;5.258;2022-08-04T10:03:52;98419.41;;;43.17;12.02
64294;BME280;50636;45.596;5.258;2022-08-04T10:09:07;98425.19;;;43.22;12.32
64294;BME280;50636;45.596;5.258;2022-08-04T10:14:47;98432.53;;;43.85;11.93
64294;BME280;50636;45.596;5.258;2022-08-04T10:20:18;98431.75;;;43.48;12.52
64294;BME280;50636;45.596;5.258;2022-08-04T10:26:04;98409.75;;;43.61;13.07
64294;BME280;50636;45.596;5.258;2022-08-04T10:28:36;98414.97;;;43.92;12.07
64294;BME280;50636;45.596;5.258;2022-08-04T10:31:09;98406.31;;;44.06;11.94
64294;BME280;50636;45.596;5.258;2022-08-04T10:33:41;98408.44;;;43.66;12.46
64294;BME280;50636;45.596;5.258;2022-08-04T10:36:10;98416.56;;;43.57;12.37
64294;BME280;50636;45.596;5.258;2022-08-04T10:38:57;98404.88;;;43.85;12.80
64294;BME280;50636;45.596;5.258;2022-08-04T10:41:46;98407.06;;;44.40;12.41
64294;BME280;50636;45.596;5.258;2022-08-04T10:47:00;98399.34;;;43.85;12.14
64294;BME280;50636;45.596;5.258;2022-08-04T10:52:07;98400.34;;;44.24;11.92
64294;BME280;50636;45.596;5.258;2022-08-04T10:54:49;98405.34;;;44.30;11.88
64294;BME280;50636;45.596;5.258;2022-08-04T10:57:38;98399.94;;;44.55;11.80
64294;BME280;50636;45.596;5.258;2022-08-04T11:00:06;98405.09;;;44.70;11.83
64294;BME280;50636;45.596;5.258;2022-08-04T11:02:45;98396.66;;;44.60;11.19
64294;BME280;50636;45.596;5.258;2022-08-04T11:07:51;98395.91;;;44.85;12.24
64294;BME280;50636;45.596;5.258;2022-08-04T11:10:21;98408.06;;;45.04;11.84
64294;BME280;50636;45.596;5.258;2022-08-04T11:12:55;98381.22;;;44.59;11.67
64294;BME280;50636;45.596;5.258;2022-08-04T11:15:29;98392.09;;;44.54;12.26
64294;BME280;50636;45.596;5.258;2022-08-04T11:18:05;98381.19;;;44.46;12.14
64294;BME280;50636;45.596;5.258;2022-08-04T11:23:07;98389.53;;;44.89;11.64
64294;BME280;50636;45.596;5.258;2022-08-04T11:33:22;98381.81;;;45.86;11.41
64294;BME280;50636;45.596;5.258;2022-08-04T11:36:29;98376.41;;;45.57;11.71
64294;BME280;50636;45.596;5.258;2022-08-04T11:39:05;98370.09;;;45.43;11.46
64294;BME280;50636;45.596;5.258;2022-08-04T11:41:50;98362.88;;;45.59;11.44
64294;BME280;50636;45.596;5.258;2022-08-04T11:44:28;98364.13;;;45.71;11.43
64294;BME280;50636;45.596;5.258;2022-08-04T11:46:59;98371.44;;;45.64;11.19
64294;BME280;50636;45.596;5.258;2022-08-04T11:49:39;98370.41;;;45.45;11.33
64294;BME280;50636;45.596;5.258;2022-08-04T11:52:07;98353.88;;;45.03;11.86
64294;BME280;50636;45.596;5.258;2022-08-04T11:54:34;98364.41;;;44.54;12.02
64294;BME280;50636;45.596;5.258;2022-08-04T11:57:03;98357.09;;;44.89;12.30
64294;BME280;50636;45.596;5.258;2022-08-04T11:59:33;98351.50;;;45.44;11.51
64294;BME280;50636;45.596;5.258;2022-08-04T12:04:54;98356.03;;;45.51;11.36
64294;BME280;50636;45.596;5.258;2022-08-04T12:10:20;98354.22;;;45.57;11.34
64294;BME280;50636;45.596;5.258;2022-08-04T12:16:23;98347.03;;;45.72;11.22
64294;BME280;50636;45.596;5.258;2022-08-04T12:18:55;98339.72;;;46.13;11.19
64294;BME280;50636;45.596;5.258;2022-08-04T12:21:28;98340.03;;;46.15;10.85
64294;BME280;50636;45.596;5.258;2022-08-04T12:24:05;98338.84;;;46.03;11.52
64294;BME280;50636;45.596;5.258;2022-08-04T12:26:37;98341.56;;;45.81;10.88
64294;BME280;50636;45.596;5.258;2022-08-04T12:29:06;98335.03;;;46.10;11.31
64294;BME280;50636;45.596;5.258;2022-08-04T12:31:51;98330.72;;;46.09;11.20
64294;BME280;50636;45.596;5.258;2022-08-04T12:34:34;98341.22;;;45.79;11.28
64294;BME280;50636;45.596;5.258;2022-08-04T12:37:04;98334.06;;;45.69;10.97
64294;BME280;50636;45.596;5.258;2022-08-04T12:39:32;98331.28;;;45.69;11.27
64294;BME280;50636;45.596;5.258;2022-08-04T12:44:40;98322.66;;;45.29;11.53
64294;BME280;50636;45.596;5.258;2022-08-04T12:47:11;98326.31;;;45.13;11.60
64294;BME280;50636;45.596;5.258;2022-08-04T12:49:40;98323.41;;;45.03;11.64
64294;BME280;50636;45.596;5.258;2022-08-04T12:52:10;98313.91;;;45.30;11.01
64294;BME280;50636;45.596;5.258;2022-08-04T12:54:39;98306.84;;;45.77;11.22
64294;BME280;50636;45.596;5.258;2022-08-04T12:57:10;98301.91;;;46.07;11.04
64294;BME280;50636;45.596;5.258;2022-08-04T12:59:43;98299.28;;;46.34;10.99
64294;BME280;50636;45.596;5.258;2022-08-04T13:02:21;98311.97;;;46.57;10.88
64294;BME280;50636;45.596;5.258;2022-08-04T13:04:49;98312.75;;;46.58;10.45
64294;BME280;50636;45.596;5.258;2022-08-04T13:07:19;98303.59;;;45.91;10.94
64294;BME280;50636;45.596;5.258;2022-08-04T13:09:46;98310.22;;;45.20;11.57
64294;BME280;50636;45.596;5.258;2022-08-04T13:12:14;98309.50;;;44.65;11.56
64294;BME280;50636;45.596;5.258;2022-08-04T13:14:42;98301.56;;;44.38;11.41
64294;BME280;50636;45.596;5.258;2022-08-04T13:17:13;98301.38;;;44.16;11.52
64294;BME280;50636;45.596;5.258;2022-08-04T13:19:45;98296.88;;;43.76;12.06
64294;BME280;50636;45.596;5.258;2022-08-04T13:22:11;98296.16;;;43.23;12.16
64294;BME280;50636;45.596;5.258;2022-08-04T13:24:41;98285.00;;;43.10;12.43
64294;BME280;50636;45.596;5.258;2022-08-04T13:27:10;98283.69;;;43.35;12.65
64294;BME280;50636;45.596;5.258;2022-08-04T13:29:40;98290.81;;;43.32;11.95
64294;BME280;50636;45.596;5.258;2022-08-04T13:32:08;98288.63;;;43.07;12.54
64294;BME280;50636;45.596;5.258;2022-08-04T13:34:35;98287.75;;;42.74;12.13
64294;BME280;50636;45.596;5.258;2022-08-04T13:37:05;98279.69;;;42.23;13.03
64294;BME280;50636;45.596;5.258;2022-08-04T13:39:33;98286.16;;;41.92;13.07
64294;BME280;50636;45.596;5.258;2022-08-04T13:42:04;98283.66;;;41.78;13.62
64294;BME280;50636;45.596;5.258;2022-08-04T13:44:34;98276.84;;;41.59;13.78
64294;BME280;50636;45.596;5.258;2022-08-04T13:47:13;98274.06;;;41.63;13.85
64294;BME280;50636;45.596;5.258;2022-08-04T13:49:39;98269.09;;;42.21;13.33
64294;BME280;50636;45.596;5.258;2022-08-04T13:52:06;98272.28;;;42.60;12.69
64294;BME280;50636;45.596;5.258;2022-08-04T13:54:45;98267.69;;;42.53;12.71
64294;BME280;50636;45.596;5.258;2022-08-04T13:57:14;98260.09;;;42.17;12.48
64294;BME280;50636;45.596;5.258;2022-08-04T13:59:43;98271.50;;;41.76;12.81
64294;BME280;50636;45.596;5.258;2022-08-04T14:05:25;98266.84;;;40.91;12.99
64294;BME280;50636;45.596;5.258;2022-08-04T14:10:23;98263.28;;;40.63;13.34
64294;BME280;50636;45.596;5.258;2022-08-04T14:12:51;98263.22;;;40.67;13.52
64294;BME280;50636;45.596;5.258;2022-08-04T14:15:40;98260.44;;;40.70;13.02
64294;BME280;50636;45.596;5.258;2022-08-04T14:18:18;98269.03;;;40.45;12.61
64294;BME280;50636;45.596;5.258;2022-08-04T14:20:59;98258.97;;;40.31;12.67
64294;BME280;50636;45.596;5.258;2022-08-04T14:23:27;98259.75;;;40.32;13.11
64294;BME280;50636;45.596;5.258;2022-08-04T14:25:53;98259.81;;;40.25;13.46
64294;BME280;50636;45.596;5.258;2022-08-04T14:28:31;98254.78;;;40.16;13.26
64294;BME280;50636;45.596;5.258;2022-08-04T14:33:36;98254.97;;;39.98;13.14
64294;BME280;50636;45.596;5.258;2022-08-04T14:36:03;98249.59;;;39.87;13.83
64294;BME280;50636;45.596;5.258;2022-08-04T14:41:06;98244.06;;;39.91;13.62
64294;BME280;50636;45.596;5.258;2022-08-04T14:43:31;98238.78;;;40.07;13.45
64294;BME280;50636;45.596;5.258;2022-08-04T14:46:04;98246.63;;;40.09;13.16
64294;BME280;50636;45.596;5.258;2022-08-04T14:48:30;98240.81;;;40.00;13.86
64294;BME280;50636;45.596;5.258;2022-08-04T14:50:55;98246.00;;;39.94;13.18
64294;BME280;50636;45.596;5.258;2022-08-04T14:53:24;98239.00;;;39.82;13.01
64294;BME280;50636;45.596;5.258;2022-08-04T14:55:58;98240.25;;;39.74;12.85
64294;BME280;50636;45.596;5.258;2022-08-04T14:58:27;98229.25;;;39.78;13.01
64294;BME280;50636;45.596;5.258;2022-08-04T15:00:58;98228.19;;;40.06;12.40
64294;BME280;50636;45.596;5.258;2022-08-04T15:03:27;98225.97;;;40.31;12.35
64294;BME280;50636;45.596;5.258;2022-08-04T15:05:55;98223.13;;;40.39;12.40
64294;BME280;50636;45.596;5.258;2022-08-04T15:08:21;98220.50;;;40.24;12.89
64294;BME280;50636;45.596;5.258;2022-08-04T15:10:47;98230.53;;;40.07;13.13
64294;BME280;50636;45.596;5.258;2022-08-04T15:13:13;98226.38;;;39.92;13.32
64294;BME280;50636;45.596;5.258;2022-08-04T15:15:40;98215.13;;;39.75;13.19
64294;BME280;50636;45.596;5.258;2022-08-04T15:18:10;98219.50;;;39.73;13.18
64294;BME280;50636;45.596;5.258;2022-08-04T15:20:37;98224.44;;;39.92;13.62
64294;BME280;50636;45.596;5.258;2022-08-04T15:23:05;98225.25;;;39.89;13.30
64294;BME280;50636;45.596;5.258;2022-08-04T15:25:46;98212.38;;;39.79;13.24
64294;BME280;50636;45.596;5.258;2022-08-04T15:28:20;98214.91;;;39.59;13.33
64294;BME280;50636;45.596;5.258;2022-08-04T15:30:48;98213.84;;;39.46;13.45
64294;BME280;50636;45.596;5.258;2022-08-04T15:33:17;98219.84;;;39.30;13.21
64294;BME280;50636;45.596;5.258;2022-08-04T15:35:49;98215.19;;;39.23;13.92
64294;BME280;50636;45.596;5.258;2022-08-04T15:38:28;98210.09;;;39.22;13.83
64294;BME280;50636;45.596;5.258;2022-08-04T15:41:04;98216.75;;;39.24;13.80
64294;BME280;50636;45.596;5.258;2022-08-04T15:43:43;98214.47;;;39.15;14.11
64294;BME280;50636;45.596;5.258;2022-08-04T15:46:11;98207.03;;;39.16;14.21
64294;BME280;50636;45.596;5.258;2022-08-04T15:48:37;98199.81;;;39.33;14.26
64294;BME280;50636;45.596;5.258;2022-08-04T15:51:14;98208.84;;;39.30;14.29
64294;BME280;50636;45.596;5.258;2022-08-04T15:54:20;98202.56;;;39.33;14.30
64294;BME280;50636;45.596;5.258;2022-08-04T15:56:48;98201.75;;;39.36;14.04
64294;BME280;50636;45.596;5.258;2022-08-04T15:59:14;98213.91;;;39.35;14.01
64294;BME280;50636;45.596;5.258;2022-08-04T16:01:41;98212.81;;;39.29;14.47
64294;BME280;50636;45.596;5.258;2022-08-04T16:04:23;98204.22;;;39.20;14.07
64294;BME280;50636;45.596;5.258;2022-08-04T16:06:49;98210.97;;;39.11;13.63
64294;BME280;50636;45.596;5.258;2022-08-04T16:09:24;98209.06;;;39.05;13.99
64294;BME280;50636;45.596;5.258;2022-08-04T16:11:51;98211.81;;;39.01;14.58
64294;BME280;50636;45.596;5.258;2022-08-04T16:14:29;98199.69;;;38.95;14.11
64294;BME280;50636;45.596;5.258;2022-08-04T16:16:55;98202.44;;;38.91;14.64
64294;BME280;50636;45.596;5.258;2022-08-04T16:22:10;98198.97;;;38.84;14.69
64294;BME280;50636;45.596;5.258;2022-08-04T16:24:38;98205.28;;;38.77;14.72
64294;BME280;50636;45.596;5.258;2022-08-04T16:27:09;98197.50;;;38.72;14.82
64294;BME280;50636;45.596;5.258;2022-08-04T16:29:42;98202.25;;;38.64;14.54
64294;BME280;50636;45.596;5.258;2022-08-04T16:37:15;98188.59;;;38.50;15.30
64294;BME280;50636;45.596;5.258;2022-08-04T16:39:43;98196.03;;;38.53;14.77
64294;BME280;50636;45.596;5.258;2022-08-04T16:45:20;98190.97;;;38.37;15.22
64294;BME280;50636;45.596;5.258;2022-08-04T16:50:12;98188.31;;;38.23;15.13
64294;BME280;50636;45.596;5.258;2022-08-04T16:52:48;98193.06;;;38.11;14.97
64294;BME280;50636;45.596;5.258;2022-08-04T16:55:18;98193.06;;;38.08;15.44
64294;BME280;50636;45.596;5.258;2022-08-04T16:57:48;98189.94;;;38.06;15.58
64294;BME280;50636;45.596;5.258;2022-08-04T17:00:15;98186.78;;;38.07;15.43
64294;BME280;50636;45.596;5.258;2022-08-04T17:02:42;98186.78;;;38.11;15.57
64294;BME280;50636;45.596;5.258;2022-08-04T17:05:23;98190.72;;;38.06;15.68
64294;BME280;50636;45.596;5.258;2022-08-04T17:07:54;98197.00;;;38.00;16.16
64294;BME280;50636;45.596;5.258;2022-08-04T17:13:29;98189.59;;;37.89;15.94